TGW477 WMKL-WSSS
Flight info
| Callsign | TGW477 |
|---|---|
| Flight time | N/A |
| Altitude | 37000 |
| Route | ISTEL1B RINBA Y507 MAKNA Y511 TOPOR A464 ARAMA DCT TEBUN TEBUN1A |
| Aircraft | A320/M-SDFGHIRWYZ/LB1 |
Departure
| Time | 2026-04-28 08:49 |
|---|---|
| Airport | Langkawi International Airport (WMKL) |
Arrival
| Time | N/A |
|---|---|
| Airport | Singapore Changi Airport (WSSS) |
| Time | Latitude | Longitude | Altitude | Speed | Heading |
|---|---|---|---|---|---|
| 2026-04-28 08:17 | 6.34044 | 99.73224 | 36 ft | 0 kts | 304° |
| 2026-04-28 08:28 | 6.34043 | 99.73224 | 36 ft | 0 kts | 304° |
| 2026-04-28 08:40 | 6.34043 | 99.73225 | 36 ft | 1 kts | 304° |
| 2026-04-28 08:40 | 6.34029 | 99.73244 | 36 ft | 4 kts | 312° |
| 2026-04-28 08:40 | 6.34009 | 99.73261 | 36 ft | 4 kts | 336° |
| 2026-04-28 08:41 | 6.33988 | 99.73264 | 36 ft | 2 kts | 34° |
| 2026-04-28 08:41 | 6.33987 | 99.73264 | 36 ft | 0 kts | 34° |
| 2026-04-28 08:44 | 6.33989 | 99.73265 | 36 ft | 1 kts | 34° |
| 2026-04-28 08:44 | 6.34004 | 99.73276 | 36 ft | 4 kts | 34° |
| 2026-04-28 08:45 | 6.34033 | 99.73296 | 36 ft | 6 kts | 34° |
| 2026-04-28 08:45 | 6.34075 | 99.73324 | 34 ft | 8 kts | 34° |
| 2026-04-28 08:45 | 6.34106 | 99.73354 | 36 ft | 6 kts | 69° |
| 2026-04-28 08:45 | 6.34089 | 99.73400 | 36 ft | 8 kts | 121° |
| 2026-04-28 08:46 | 6.34111 | 99.73445 | 35 ft | 9 kts | 33° |
| 2026-04-28 08:46 | 6.34167 | 99.73483 | 35 ft | 11 kts | 34° |
| 2026-04-28 08:46 | 6.34234 | 99.73529 | 37 ft | 13 kts | 34° |
| 2026-04-28 08:46 | 6.34314 | 99.73583 | 36 ft | 15 kts | 34° |
| 2026-04-28 08:47 | 6.34398 | 99.73640 | 37 ft | 12 kts | 34° |
| 2026-04-28 08:47 | 6.34448 | 99.73697 | 34 ft | 11 kts | 68° |
| 2026-04-28 08:47 | 6.34436 | 99.73766 | 38 ft | 11 kts | 126° |
| 2026-04-28 08:47 | 6.34396 | 99.73820 | 38 ft | 9 kts | 132° |
| 2026-04-28 08:48 | 6.34352 | 99.73807 | 37 ft | 4 kts | 213° |
| 2026-04-28 08:48 | 6.34319 | 99.73784 | 39 ft | 8 kts | 214° |
| 2026-04-28 08:48 | 6.34191 | 99.73697 | 37 ft | 53 kts | 214° |
| 2026-04-28 08:48 | 6.33701 | 99.73361 | 37 ft | 115 kts | 214° |
| 2026-04-28 08:49 | 6.32902 | 99.72813 | 37 ft | 161 kts | 215° |
| 2026-04-28 08:49 | 6.31901 | 99.72106 | 327 ft | 178 kts | 215° |
| 2026-04-28 08:49 | 6.30888 | 99.71430 | 988 ft | 176 kts | 214° |
| 2026-04-28 08:49 | 6.29802 | 99.70874 | 1555 ft | 176 kts | 199° |
| 2026-04-28 08:50 | 6.28611 | 99.70617 | 2009 ft | 176 kts | 184° |
| 2026-04-28 08:50 | 6.27331 | 99.70678 | 2203 ft | 195 kts | 169° |
| 2026-04-28 08:50 | 6.25996 | 99.71138 | 2340 ft | 217 kts | 152° |
| 2026-04-28 08:50 | 6.24743 | 99.72091 | 2498 ft | 237 kts | 133° |
| 2026-04-28 08:51 | 6.23818 | 99.73555 | 2772 ft | 262 kts | 110° |
| 2026-04-28 08:51 | 6.23370 | 99.75376 | 3327 ft | 273 kts | 101° |
| 2026-04-28 08:51 | 6.22967 | 99.77259 | 4120 ft | 277 kts | 102° |
| 2026-04-28 08:51 | 6.22549 | 99.79155 | 4941 ft | 279 kts | 102° |
| 2026-04-28 08:52 | 6.22124 | 99.81068 | 5763 ft | 281 kts | 102° |
| 2026-04-28 08:52 | 6.21697 | 99.82990 | 6571 ft | 282 kts | 102° |
| 2026-04-28 08:52 | 6.21265 | 99.84927 | 7356 ft | 285 kts | 102° |
| 2026-04-28 08:52 | 6.20833 | 99.86860 | 8114 ft | 288 kts | 102° |
| 2026-04-28 08:53 | 6.20377 | 99.88820 | 8848 ft | 292 kts | 107° |
| 2026-04-28 08:53 | 6.19507 | 99.90673 | 9559 ft | 295 kts | 124° |
| 2026-04-28 08:53 | 6.18148 | 99.92233 | 10288 ft | 299 kts | 134° |
| 2026-04-28 08:53 | 6.16659 | 99.93741 | 10755 ft | 313 kts | 134° |
| 2026-04-28 08:54 | 6.15075 | 99.95361 | 10908 ft | 336 kts | 134° |
| 2026-04-28 08:54 | 6.13406 | 99.97072 | 11343 ft | 345 kts | 134° |
| 2026-04-28 08:54 | 6.11735 | 99.98790 | 11953 ft | 348 kts | 133° |
| 2026-04-28 08:54 | 6.10029 | 100.00538 | 12607 ft | 350 kts | 134° |
| 2026-04-28 08:55 | 6.08317 | 100.02291 | 13206 ft | 353 kts | 133° |
| 2026-04-28 08:55 | 6.06587 | 100.04059 | 13770 ft | 357 kts | 133° |
| 2026-04-28 08:55 | 6.04837 | 100.05848 | 14335 ft | 361 kts | 133° |
| 2026-04-28 08:55 | 6.03064 | 100.07655 | 14897 ft | 364 kts | 133° |
| 2026-04-28 08:56 | 6.01276 | 100.09475 | 15442 ft | 368 kts | 133° |
| 2026-04-28 08:56 | 5.99470 | 100.11320 | 15972 ft | 371 kts | 133° |
| 2026-04-28 08:56 | 5.97653 | 100.13181 | 16479 ft | 374 kts | 133° |
| 2026-04-28 08:56 | 5.95839 | 100.15035 | 16954 ft | 377 kts | 133° |
| 2026-04-28 08:57 | 5.93995 | 100.16921 | 17431 ft | 380 kts | 133° |
| 2026-04-28 08:57 | 5.92129 | 100.18831 | 17883 ft | 384 kts | 133° |
| 2026-04-28 08:57 | 5.90248 | 100.20755 | 18359 ft | 388 kts | 133° |
| 2026-04-28 08:57 | 5.88350 | 100.22696 | 18829 ft | 391 kts | 133° |
| 2026-04-28 08:58 | 5.86428 | 100.24661 | 19286 ft | 394 kts | 133° |
| 2026-04-28 08:58 | 5.84497 | 100.26629 | 19725 ft | 397 kts | 133° |
| 2026-04-28 08:58 | 5.82550 | 100.28615 | 20161 ft | 400 kts | 133° |
| 2026-04-28 08:58 | 5.80607 | 100.30597 | 20587 ft | 403 kts | 133° |
| 2026-04-28 08:59 | 5.78633 | 100.32606 | 21007 ft | 406 kts | 134° |
| 2026-04-28 08:59 | 5.76411 | 100.34379 | 21398 ft | 411 kts | 148° |
| 2026-04-28 08:59 | 5.73789 | 100.35597 | 21784 ft | 416 kts | 155° |
| 2026-04-28 08:59 | 5.71109 | 100.36731 | 22170 ft | 419 kts | 155° |
| 2026-04-28 09:00 | 5.68413 | 100.37864 | 22536 ft | 421 kts | 155° |
| 2026-04-28 09:00 | 5.65735 | 100.38988 | 22891 ft | 424 kts | 155° |
| 2026-04-28 09:00 | 5.63008 | 100.40132 | 23241 ft | 426 kts | 155° |
| 2026-04-28 09:00 | 5.60266 | 100.41283 | 23575 ft | 429 kts | 155° |
| 2026-04-28 09:01 | 5.57506 | 100.42443 | 23921 ft | 431 kts | 155° |
| 2026-04-28 09:01 | 5.54726 | 100.43612 | 24244 ft | 433 kts | 155° |
| 2026-04-28 09:01 | 5.51935 | 100.44791 | 24550 ft | 435 kts | 155° |
| 2026-04-28 09:01 | 5.50085 | 100.45571 | 24757 ft | 437 kts | 155° |
| 2026-04-28 09:02 | 5.46312 | 100.47158 | 25168 ft | 440 kts | 155° |
| 2026-04-28 09:02 | 5.43472 | 100.48352 | 25475 ft | 443 kts | 155° |
| 2026-04-28 09:02 | 5.40619 | 100.49555 | 25782 ft | 445 kts | 155° |
| 2026-04-28 09:02 | 5.37764 | 100.50763 | 26076 ft | 447 kts | 155° |
| 2026-04-28 09:03 | 5.34922 | 100.51961 | 26360 ft | 449 kts | 155° |
| 2026-04-28 09:03 | 5.32033 | 100.53177 | 26647 ft | 451 kts | 156° |
| 2026-04-28 09:03 | 5.29121 | 100.54402 | 26927 ft | 453 kts | 156° |
| 2026-04-28 09:03 | 5.26192 | 100.55636 | 27213 ft | 455 kts | 156° |
| 2026-04-28 09:04 | 5.23278 | 100.56863 | 27481 ft | 457 kts | 156° |
| 2026-04-28 09:04 | 5.20337 | 100.58101 | 27749 ft | 458 kts | 156° |
| 2026-04-28 09:04 | 5.17391 | 100.59342 | 28017 ft | 461 kts | 156° |
| 2026-04-28 09:04 | 5.14424 | 100.60593 | 28303 ft | 462 kts | 156° |
| 2026-04-28 09:05 | 5.11478 | 100.61834 | 28564 ft | 465 kts | 156° |
| 2026-04-28 09:05 | 5.08496 | 100.63088 | 28826 ft | 466 kts | 156° |
| 2026-04-28 09:05 | 5.05496 | 100.64352 | 29088 ft | 468 kts | 156° |
| 2026-04-28 09:05 | 5.02490 | 100.65619 | 29346 ft | 469 kts | 156° |
| 2026-04-28 09:06 | 4.99465 | 100.66892 | 29602 ft | 472 kts | 156° |
| 2026-04-28 09:06 | 4.96433 | 100.68165 | 29989 ft | 471 kts | 156° |
| 2026-04-28 09:06 | 4.93414 | 100.69429 | 30391 ft | 469 kts | 156° |
| 2026-04-28 09:06 | 4.90440 | 100.70677 | 30791 ft | 468 kts | 156° |
| 2026-04-28 09:07 | 4.87439 | 100.71939 | 31221 ft | 465 kts | 156° |
| 2026-04-28 09:07 | 4.84461 | 100.73193 | 31649 ft | 463 kts | 156° |
| 2026-04-28 09:07 | 4.81485 | 100.74447 | 32118 ft | 461 kts | 156° |
| 2026-04-28 09:07 | 4.78535 | 100.75689 | 32551 ft | 458 kts | 156° |
| 2026-04-28 09:08 | 4.75641 | 100.76907 | 32978 ft | 456 kts | 156° |
| 2026-04-28 09:08 | 4.72723 | 100.78134 | 33423 ft | 453 kts | 156° |
| 2026-04-28 09:08 | 4.69815 | 100.79354 | 33816 ft | 451 kts | 156° |
| 2026-04-28 09:08 | 4.66921 | 100.80567 | 34158 ft | 451 kts | 156° |
| 2026-04-28 09:09 | 4.64019 | 100.81785 | 34529 ft | 450 kts | 156° |
| 2026-04-28 09:09 | 4.61132 | 100.83000 | 34886 ft | 449 kts | 156° |
| 2026-04-28 09:09 | 4.58289 | 100.84199 | 35239 ft | 448 kts | 156° |
| 2026-04-28 09:09 | 4.55405 | 100.85410 | 35581 ft | 448 kts | 156° |
| 2026-04-28 09:10 | 4.52532 | 100.86614 | 35911 ft | 446 kts | 156° |
| 2026-04-28 09:10 | 4.49667 | 100.87815 | 36209 ft | 445 kts | 156° |
| 2026-04-28 09:10 | 4.46800 | 100.89021 | 36459 ft | 445 kts | 156° |
| 2026-04-28 09:10 | 4.44917 | 100.89828 | 36626 ft | 445 kts | 155° |
| 2026-04-28 09:11 | 4.42093 | 100.91121 | 36775 ft | 445 kts | 154° |
| 2026-04-28 09:11 | 4.36530 | 100.93867 | 36797 ft | 447 kts | 153° |
| 2026-04-28 09:12 | 4.30983 | 100.96660 | 36795 ft | 444 kts | 153° |
| 2026-04-28 09:12 | 4.25443 | 100.99392 | 36795 ft | 443 kts | 153° |
| 2026-04-28 09:13 | 4.19887 | 101.02085 | 36797 ft | 443 kts | 153° |
| 2026-04-28 09:13 | 4.14355 | 101.04760 | 36797 ft | 444 kts | 153° |
| 2026-04-28 09:14 | 4.08803 | 101.07455 | 36796 ft | 443 kts | 153° |
| 2026-04-28 09:14 | 4.03283 | 101.10149 | 36783 ft | 439 kts | 153° |
| 2026-04-28 09:15 | 3.97764 | 101.12841 | 36770 ft | 440 kts | 153° |
| 2026-04-28 09:15 | 3.92270 | 101.15511 | 36768 ft | 442 kts | 153° |
| 2026-04-28 09:16 | 3.86737 | 101.18201 | 36770 ft | 441 kts | 153° |
| 2026-04-28 09:16 | 3.81223 | 101.20898 | 36773 ft | 441 kts | 153° |
| 2026-04-28 09:17 | 3.75685 | 101.23598 | 36776 ft | 442 kts | 152° |
| 2026-04-28 09:17 | 3.70199 | 101.26406 | 36783 ft | 443 kts | 151° |
| 2026-04-28 09:18 | 3.64751 | 101.29282 | 36788 ft | 443 kts | 151° |
| 2026-04-28 09:18 | 3.59336 | 101.32137 | 36789 ft | 443 kts | 151° |
| 2026-04-28 09:19 | 3.53863 | 101.34979 | 36783 ft | 443 kts | 152° |
| 2026-04-28 09:19 | 3.48397 | 101.37814 | 36781 ft | 441 kts | 152° |
| 2026-04-28 09:20 | 3.42939 | 101.40651 | 36768 ft | 441 kts | 151° |
| 2026-04-28 09:20 | 3.37488 | 101.43490 | 36763 ft | 441 kts | 151° |
| 2026-04-28 09:21 | 3.32074 | 101.46311 | 36755 ft | 443 kts | 152° |
| 2026-04-28 09:21 | 3.26508 | 101.48981 | 36767 ft | 443 kts | 154° |
| 2026-04-28 09:22 | 3.20884 | 101.51498 | 36769 ft | 443 kts | 155° |
| 2026-04-28 09:22 | 3.15263 | 101.54030 | 36765 ft | 443 kts | 154° |
| 2026-04-28 09:23 | 3.09705 | 101.56597 | 36769 ft | 443 kts | 154° |
| 2026-04-28 09:23 | 3.04093 | 101.59191 | 36767 ft | 443 kts | 154° |
| 2026-04-28 09:24 | 2.98491 | 101.61778 | 36768 ft | 442 kts | 154° |
| 2026-04-28 09:24 | 2.92899 | 101.64367 | 36766 ft | 442 kts | 154° |
| 2026-04-28 09:25 | 2.87314 | 101.66955 | 36762 ft | 441 kts | 154° |
| 2026-04-28 09:25 | 2.81765 | 101.69520 | 36764 ft | 442 kts | 154° |
| 2026-04-28 09:26 | 2.76167 | 101.72095 | 36763 ft | 442 kts | 154° |
| 2026-04-28 09:26 | 2.70602 | 101.74667 | 36770 ft | 443 kts | 153° |
| 2026-04-28 09:27 | 2.62297 | 101.78716 | 36775 ft | 442 kts | 152° |
| 2026-04-28 09:27 | 2.56794 | 101.81463 | 36772 ft | 441 kts | 148° |
| 2026-04-28 09:28 | 2.52049 | 101.85263 | 36768 ft | 436 kts | 130° |
| 2026-04-28 09:28 | 2.48341 | 101.90065 | 36775 ft | 436 kts | 126° |
| 2026-04-28 09:29 | 2.44681 | 101.94917 | 36784 ft | 437 kts | 126° |
| 2026-04-28 09:29 | 2.41047 | 101.99746 | 36787 ft | 437 kts | 126° |
| 2026-04-28 09:30 | 2.37383 | 102.04622 | 36785 ft | 437 kts | 126° |
| 2026-04-28 09:30 | 2.33743 | 102.09452 | 36783 ft | 437 kts | 126° |
| 2026-04-28 09:31 | 2.30075 | 102.14316 | 36783 ft | 437 kts | 126° |
| 2026-04-28 09:31 | 2.26404 | 102.19181 | 36787 ft | 437 kts | 126° |
| 2026-04-28 09:32 | 2.22770 | 102.24003 | 36791 ft | 437 kts | 126° |
| 2026-04-28 09:32 | 2.19119 | 102.28867 | 36797 ft | 437 kts | 126° |
| 2026-04-28 09:33 | 2.15459 | 102.33721 | 36798 ft | 437 kts | 126° |
| 2026-04-28 09:33 | 2.11795 | 102.38570 | 36799 ft | 437 kts | 126° |
| 2026-04-28 09:34 | 2.08129 | 102.43421 | 36797 ft | 437 kts | 126° |
| 2026-04-28 09:34 | 2.04506 | 102.48231 | 36799 ft | 437 kts | 126° |
| 2026-04-28 09:35 | 2.00831 | 102.53116 | 36798 ft | 437 kts | 126° |
| 2026-04-28 09:35 | 1.97167 | 102.57978 | 36797 ft | 437 kts | 125° |
| 2026-04-28 09:36 | 1.93526 | 102.62823 | 36798 ft | 436 kts | 126° |
| 2026-04-28 09:36 | 1.89877 | 102.67673 | 36790 ft | 435 kts | 126° |
| 2026-04-28 09:37 | 1.86257 | 102.72476 | 36797 ft | 435 kts | 126° |
| 2026-04-28 09:37 | 1.82581 | 102.77340 | 36796 ft | 435 kts | 126° |
| 2026-04-28 09:38 | 1.78951 | 102.82148 | 36787 ft | 436 kts | 126° |
| 2026-04-28 09:38 | 1.75288 | 102.87002 | 36784 ft | 436 kts | 126° |
| 2026-04-28 09:39 | 1.72088 | 102.92124 | 36782 ft | 435 kts | 117° |
| 2026-04-28 09:39 | 1.69254 | 102.97476 | 36792 ft | 436 kts | 117° |
| 2026-04-28 09:40 | 1.66416 | 103.02788 | 36413 ft | 437 kts | 117° |
| 2026-04-28 09:40 | 1.64959 | 103.05513 | 35395 ft | 447 kts | 117° |
| 2026-04-28 09:40 | 1.63484 | 103.08280 | 34479 ft | 453 kts | 117° |
| 2026-04-28 09:41 | 1.61998 | 103.11077 | 33604 ft | 457 kts | 117° |
| 2026-04-28 09:41 | 1.60498 | 103.13898 | 32707 ft | 461 kts | 117° |
| 2026-04-28 09:41 | 1.58979 | 103.16743 | 31752 ft | 466 kts | 117° |
| 2026-04-28 09:41 | 1.57452 | 103.19595 | 30951 ft | 466 kts | 117° |
| 2026-04-28 09:42 | 1.55938 | 103.22420 | 30130 ft | 467 kts | 117° |
| 2026-04-28 09:42 | 1.54409 | 103.25279 | 29400 ft | 465 kts | 117° |
| 2026-04-28 09:42 | 1.52885 | 103.28129 | 28729 ft | 461 kts | 117° |
| 2026-04-28 09:42 | 1.51374 | 103.30954 | 28081 ft | 458 kts | 117° |
| 2026-04-28 09:43 | 1.49902 | 103.33715 | 27447 ft | 453 kts | 117° |
| 2026-04-28 09:43 | 1.48427 | 103.36486 | 26826 ft | 449 kts | 117° |
| 2026-04-28 09:43 | 1.47028 | 103.39256 | 26206 ft | 443 kts | 111° |
| 2026-04-28 09:43 | 1.46276 | 103.42210 | 25611 ft | 436 kts | 95° |
| 2026-04-28 09:44 | 1.46333 | 103.45213 | 24971 ft | 429 kts | 83° |
| 2026-04-28 09:44 | 1.46724 | 103.48137 | 23905 ft | 422 kts | 82° |
| 2026-04-28 09:44 | 1.47129 | 103.51021 | 22822 ft | 415 kts | 82° |
| 2026-04-28 09:44 | 1.47536 | 103.53847 | 21768 ft | 409 kts | 82° |
| 2026-04-28 09:45 | 1.47943 | 103.56656 | 20736 ft | 403 kts | 82° |
| 2026-04-28 09:45 | 1.48336 | 103.59402 | 19736 ft | 397 kts | 82° |
| 2026-04-28 09:45 | 1.48725 | 103.62120 | 18747 ft | 392 kts | 82° |
| 2026-04-28 09:45 | 1.49096 | 103.64758 | 17749 ft | 385 kts | 82° |
| 2026-04-28 09:46 | 1.49463 | 103.67396 | 16935 ft | 376 kts | 82° |
| 2026-04-28 09:46 | 1.49811 | 103.69891 | 16774 ft | 349 kts | 82° |
| 2026-04-28 09:46 | 1.50120 | 103.72227 | 16484 ft | 331 kts | 84° |
| 2026-04-28 09:46 | 1.50343 | 103.74492 | 15908 ft | 323 kts | 85° |
| 2026-04-28 09:47 | 1.50499 | 103.76695 | 15257 ft | 319 kts | 86° |
| 2026-04-28 09:47 | 1.50637 | 103.78891 | 14566 ft | 317 kts | 86° |
| 2026-04-28 09:47 | 1.50792 | 103.81092 | 13925 ft | 311 kts | 84° |
| 2026-04-28 09:47 | 1.51292 | 103.83191 | 13218 ft | 310 kts | 65° |
| 2026-04-28 09:48 | 1.52394 | 103.85012 | 12267 ft | 306 kts | 49° |
| 2026-04-28 09:48 | 1.53894 | 103.86581 | 11066 ft | 317 kts | 45° |
| 2026-04-28 09:48 | 1.55430 | 103.88103 | 10659 ft | 305 kts | 45° |
| 2026-04-28 09:48 | 1.56905 | 103.89552 | 10270 ft | 293 kts | 45° |
| 2026-04-28 09:49 | 1.58334 | 103.90957 | 9846 ft | 285 kts | 45° |
| 2026-04-28 09:49 | 1.59739 | 103.92334 | 9323 ft | 281 kts | 45° |
| 2026-04-28 09:49 | 1.61133 | 103.93697 | 8802 ft | 278 kts | 45° |
| 2026-04-28 09:49 | 1.62482 | 103.95012 | 8552 ft | 265 kts | 45° |
| 2026-04-28 09:50 | 1.63789 | 103.96286 | 8140 ft | 260 kts | 45° |
| 2026-04-28 09:50 | 1.65070 | 103.97532 | 7687 ft | 257 kts | 45° |
| 2026-04-28 09:50 | 1.66355 | 103.98783 | 7173 ft | 255 kts | 45° |
| 2026-04-28 09:50 | 1.67605 | 104.00002 | 6670 ft | 254 kts | 45° |
| 2026-04-28 09:51 | 1.68768 | 104.01314 | 6266 ft | 249 kts | 60° |
| 2026-04-28 09:51 | 1.69339 | 104.02887 | 6185 ft | 238 kts | 83° |
| 2026-04-28 09:51 | 1.69233 | 104.04517 | 6024 ft | 234 kts | 107° |
| 2026-04-28 09:51 | 1.68475 | 104.05940 | 5821 ft | 233 kts | 131° |
| 2026-04-28 09:52 | 1.67205 | 104.06921 | 5612 ft | 232 kts | 155° |
| 2026-04-28 09:52 | 1.65652 | 104.07310 | 5403 ft | 232 kts | 178° |
| 2026-04-28 09:52 | 1.64044 | 104.07163 | 5219 ft | 232 kts | 187° |
| 2026-04-28 09:52 | 1.62464 | 104.06963 | 4981 ft | 231 kts | 186° |
| 2026-04-28 09:53 | 1.60861 | 104.06758 | 4748 ft | 232 kts | 186° |
| 2026-04-28 09:53 | 1.59256 | 104.06551 | 4523 ft | 232 kts | 187° |
| 2026-04-28 09:53 | 1.57665 | 104.06348 | 4290 ft | 227 kts | 187° |
| 2026-04-28 09:53 | 1.56085 | 104.06146 | 4044 ft | 228 kts | 187° |
| 2026-04-28 09:54 | 1.54494 | 104.05920 | 3711 ft | 233 kts | 193° |
| 2026-04-28 09:54 | 1.52942 | 104.05385 | 3281 ft | 235 kts | 201° |
| 2026-04-28 09:54 | 1.51492 | 104.04763 | 2957 ft | 225 kts | 202° |
| 2026-04-28 09:54 | 1.50088 | 104.04163 | 2666 ft | 214 kts | 202° |
| 2026-04-28 09:55 | 1.48742 | 104.03589 | 2398 ft | 200 kts | 199° |
| 2026-04-28 09:55 | 1.47519 | 104.03076 | 2154 ft | 182 kts | 202° |
| 2026-04-28 09:55 | 1.46417 | 104.02617 | 1909 ft | 167 kts | 197° |
| 2026-04-28 09:55 | 1.45378 | 104.02174 | 1678 ft | 158 kts | 200° |
| 2026-04-28 09:56 | 1.44375 | 104.01748 | 1479 ft | 155 kts | 199° |
| 2026-04-28 09:56 | 1.43391 | 104.01333 | 1278 ft | 153 kts | 199° |
| 2026-04-28 09:56 | 1.42414 | 104.00920 | 1074 ft | 151 kts | 198° |
| 2026-04-28 09:56 | 1.41445 | 104.00512 | 873 ft | 151 kts | 199° |
| 2026-04-28 09:57 | 1.40476 | 104.00102 | 678 ft | 151 kts | 199° |
| 2026-04-28 09:57 | 1.39508 | 103.99693 | 464 ft | 151 kts | 199° |
| 2026-04-28 09:57 | 1.38550 | 103.99287 | 254 ft | 150 kts | 200° |
| 2026-04-28 09:57 | 1.37592 | 103.98882 | 69 ft | 149 kts | 200° |
| 2026-04-28 09:58 | 1.36641 | 103.98485 | 34 ft | 148 kts | 200° |
| 2026-04-28 09:58 | 1.35686 | 103.98073 | 383 ft | 160 kts | 200° |
| 2026-04-28 09:58 | 1.34616 | 103.97599 | 1057 ft | 172 kts | 200° |
| 2026-04-28 09:58 | 1.33458 | 103.97071 | 1690 ft | 189 kts | 201° |
| 2026-04-28 09:59 | 1.32240 | 103.96514 | 2436 ft | 192 kts | 201° |
| 2026-04-28 09:59 | 1.31019 | 103.95982 | 2787 ft | 196 kts | 201° |
| 2026-04-28 09:59 | 1.29753 | 103.95450 | 3158 ft | 199 kts | 201° |
| 2026-04-28 09:59 | 1.28476 | 103.94923 | 3600 ft | 196 kts | 201° |
| 2026-04-28 10:00 | 1.27634 | 103.94579 | 3888 ft | 199 kts | 201° |
| 2026-04-28 10:00 | 1.26347 | 103.94059 | 4477 ft | 200 kts | 200° |
| 2026-04-28 10:00 | 1.25044 | 103.93534 | 4984 ft | 206 kts | 201° |
| 2026-04-28 10:00 | 1.23662 | 103.92982 | 5188 ft | 227 kts | 201° |
| 2026-04-28 10:01 | 1.22100 | 103.92462 | 5220 ft | 242 kts | 186° |
| 2026-04-28 10:01 | 1.20448 | 103.92676 | 5238 ft | 241 kts | 154° |
| 2026-04-28 10:01 | 1.19169 | 103.93701 | 5260 ft | 240 kts | 123° |
| 2026-04-28 10:01 | 1.18604 | 103.95261 | 5281 ft | 245 kts | 96° |
| 2026-04-28 10:02 | 1.18517 | 103.96989 | 5273 ft | 251 kts | 90° |
| 2026-04-28 10:02 | 1.18497 | 103.98733 | 5282 ft | 251 kts | 89° |
| 2026-04-28 10:02 | 1.18492 | 104.00447 | 5294 ft | 250 kts | 91° |
| 2026-04-28 10:02 | 1.18485 | 104.02176 | 5267 ft | 249 kts | 91° |
| 2026-04-28 10:03 | 1.18483 | 104.03916 | 5271 ft | 252 kts | 90° |
| 2026-04-28 10:03 | 1.18483 | 104.05647 | 5274 ft | 252 kts | 90° |
| 2026-04-28 10:03 | 1.18471 | 104.07391 | 5287 ft | 251 kts | 91° |
| 2026-04-28 10:03 | 1.18536 | 104.09120 | 5259 ft | 248 kts | 76° |
| 2026-04-28 10:04 | 1.19324 | 104.10648 | 5272 ft | 251 kts | 46° |
| 2026-04-28 10:04 | 1.20729 | 104.11709 | 5275 ft | 255 kts | 31° |
| 2026-04-28 10:04 | 1.22254 | 104.12601 | 5276 ft | 254 kts | 30° |
| 2026-04-28 10:04 | 1.23777 | 104.13466 | 5277 ft | 254 kts | 30° |
| 2026-04-28 10:05 | 1.25319 | 104.14338 | 5278 ft | 255 kts | 30° |
| 2026-04-28 10:05 | 1.26868 | 104.15223 | 5280 ft | 255 kts | 30° |
| 2026-04-28 10:05 | 1.28415 | 104.16098 | 5291 ft | 258 kts | 28° |
| 2026-04-28 10:05 | 1.29974 | 104.16964 | 5267 ft | 255 kts | 30° |
| 2026-04-28 10:06 | 1.31514 | 104.17826 | 5279 ft | 252 kts | 30° |
| 2026-04-28 10:06 | 1.33067 | 104.18650 | 5277 ft | 254 kts | 24° |
| 2026-04-28 10:06 | 1.34722 | 104.19281 | 5275 ft | 254 kts | 20° |
| 2026-04-28 10:06 | 1.36390 | 104.19869 | 5271 ft | 253 kts | 20° |
| 2026-04-28 10:07 | 1.38039 | 104.20447 | 5278 ft | 255 kts | 20° |
| 2026-04-28 10:07 | 1.39710 | 104.21033 | 5267 ft | 253 kts | 20° |
| 2026-04-28 10:07 | 1.41377 | 104.21617 | 5270 ft | 254 kts | 18° |
| 2026-04-28 10:07 | 1.43124 | 104.21887 | 5268 ft | 255 kts | 2° |
| 2026-04-28 10:08 | 1.44897 | 104.21901 | 5276 ft | 255 kts | 0° |
| 2026-04-28 10:08 | 1.46680 | 104.21884 | 5279 ft | 255 kts | 360° |
| 2026-04-28 10:08 | 1.48426 | 104.21857 | 5271 ft | 250 kts | 360° |
| 2026-04-28 10:08 | 1.50122 | 104.21832 | 5275 ft | 237 kts | 358° |
| 2026-04-28 10:09 | 1.51702 | 104.21435 | 5273 ft | 235 kts | 333° |
| 2026-04-28 10:09 | 1.52944 | 104.20404 | 5013 ft | 233 kts | 306° |
| 2026-04-28 10:09 | 1.53584 | 104.18933 | 4672 ft | 237 kts | 279° |
| 2026-04-28 10:09 | 1.53685 | 104.17310 | 4407 ft | 233 kts | 274° |
| 2026-04-28 10:10 | 1.53752 | 104.15698 | 4098 ft | 230 kts | 272° |
| 2026-04-28 10:10 | 1.53822 | 104.14134 | 3952 ft | 223 kts | 272° |
| 2026-04-28 10:10 | 1.53891 | 104.12611 | 3825 ft | 214 kts | 272° |
| 2026-04-28 10:10 | 1.53950 | 104.11195 | 3718 ft | 194 kts | 271° |
| 2026-04-28 10:11 | 1.54007 | 104.09812 | 3347 ft | 203 kts | 274° |
| 2026-04-28 10:11 | 1.54070 | 104.08419 | 3200 ft | 199 kts | 270° |
| 2026-04-28 10:11 | 1.53845 | 104.07087 | 3183 ft | 198 kts | 250° |
| 2026-04-28 10:11 | 1.53164 | 104.05897 | 3177 ft | 198 kts | 228° |
| 2026-04-28 10:12 | 1.52102 | 104.05027 | 3037 ft | 197 kts | 206° |
| 2026-04-28 10:12 | 1.50855 | 104.04483 | 2825 ft | 192 kts | 201° |
| 2026-04-28 10:12 | 1.49641 | 104.03972 | 2574 ft | 187 kts | 200° |
| 2026-04-28 10:12 | 1.48468 | 104.03477 | 2333 ft | 185 kts | 200° |
| 2026-04-28 10:13 | 1.47293 | 104.02979 | 2083 ft | 184 kts | 199° |
| 2026-04-28 10:13 | 1.46142 | 104.02488 | 1863 ft | 175 kts | 199° |
| 2026-04-28 10:13 | 1.45028 | 104.02023 | 1644 ft | 177 kts | 199° |
| 2026-04-28 10:13 | 1.43960 | 104.01573 | 1393 ft | 159 kts | 199° |
| 2026-04-28 10:14 | 1.42960 | 104.01150 | 1186 ft | 154 kts | 199° |
| 2026-04-28 10:14 | 1.41977 | 104.00735 | 988 ft | 152 kts | 198° |
| 2026-04-28 10:15 | 1.38970 | 103.99466 | 367 ft | 150 kts | 199° |